Velserdiep — PBLP — position and weather

sailwx.info

Track history (hours):
 
Tides and Currents Weather Stations Pressure Air Temp Water Temp Dewpoint Dewpoint Depression Visibility Wind Speed Wind Dir Waves Ship Positions

Velserdiep

Last reported at 2016-Jun-29 23:33 UTC. Time now 2016-Jun-29 23:47 UTC.
Position N 52°28' E 004°35'.

Length 120 m; draft 5 m.

Type: Cargo ship. MMSI: 244484000.

Date/timePositionNaut miles runAvg speedWind from/ knotsBaromVisibWave heightAir tempDewpointWater temp
2016-Jun-29 23:33N 52°28' E 004°35'0 0.0
2016-Jun-29 22:33N 52°28' E 004°35'0 0.0
2016-Jun-29 21:33N 52°28' E 004°35'0 0.0
2016-Jun-29 20:33N 52°28' E 004°35'0 0.0
2016-Jun-29 19:32N 52°28' E 004°35'0 0.0
2016-Jun-29 18:33N 52°28' E 004°35'0 0.0
2016-Jun-29 17:33N 52°28' E 004°35'0 0.0
2016-Jun-29 16:33N 52°28' E 004°35'0 0.0
2016-Jun-29 15:33N 52°28' E 004°35'0 0.0
2016-Jun-29 14:33N 52°28' E 004°35'0 0.0
2016-Jun-29 13:33N 52°28' E 004°35'0 0.0
2016-Jun-29 12:33N 52°28' E 004°35'0 0.0
2016-Jun-29 11:33N 52°28' E 004°35'0 0.0
2016-Jun-29 10:33N 52°28' E 004°35'0 0.0
2016-Jun-29 09:33N 52°28' E 004°35'0 0.0
2016-Jun-29 08:33N 52°28' E 004°35'0 0.0
2016-Jun-29 07:33N 52°28' E 004°35'0 0.0
2016-Jun-29 06:33N 52°28' E 004°35'0 0.0
2016-Jun-29 05:33N 52°28' E 004°35'0 0.0
2016-Jun-29 04:33N 52°28' E 004°35'0 0.0
2016-Jun-29 03:33N 52°28' E 004°35'0 0.0
2016-Jun-29 02:33N 52°28' E 004°35'0 0.0
2016-Jun-29 01:33N 52°28' E 004°35'0 0.0
2016-Jun-29 00:33N 52°28' E 004°35'0 0.0
2016-Jun-28 23:33N 52°28' E 004°35'0 0.0
2016-Jun-28 22:33N 52°28' E 004°35'0 0.0
2016-Jun-28 21:33N 52°28' E 004°35'0 0.0
2016-Jun-28 20:33N 52°28' E 004°35'0 0.0
2016-Jun-28 19:33N 52°28' E 004°35'0 0.0
2016-Jun-28 18:33N 52°28' E 004°35'0 0.0
2016-Jun-28 17:33N 52°28' E 004°35'0 0.0
2016-Jun-28 16:33N 52°28' E 004°35'0 0.0
2016-Jun-28 15:33N 52°28' E 004°35'0 0.0
2016-Jun-28 14:33N 52°28' E 004°35'0 0.0
2016-Jun-28 13:33N 52°28' E 004°35'0 0.0
2016-Jun-28 12:33N 52°28' E 004°35'0 0.0
2016-Jun-28 11:33N 52°28' E 004°35'0 0.0
2016-Jun-28 10:33N 52°28' E 004°35'0 0.0
2016-Jun-28 09:33N 52°28' E 004°35'0 0.0
2016-Jun-28 08:33N 52°28' E 004°35'0 0.0
2016-Jun-28 07:33N 52°28' E 004°35'6 2.1
2016-Jun-28 04:33N 52°22' E 004°29'2 1.7
2016-Jun-28 03:34N 52°21' E 004°29'3 3.2
2016-Jun-28 02:33N 52°24' E 004°31'3 2.9
2016-Jun-28 01:33N 52°26' E 004°33'0 0.2
2016-Jun-28 00:33N 52°26' E 004°32'2 2.0
2016-Jun-27 23:33N 52°25' E 004°31'2 2.5
2016-Jun-27 22:33N 52°27' E 004°32'2 1.6
2016-Jun-27 21:33N 52°28' E 004°35'0 0.0
2016-Jun-27 20:33N 52°28' E 004°35'0 0.0
2016-Jun-27 19:33N 52°28' E 004°35'0 0.0
2016-Jun-27 18:33N 52°28' E 004°35'1 0.5
2016-Jun-27 17:33N 52°28' E 004°36'0 0.5
2016-Jun-27 16:33N 52°28' E 004°35'0 0.0
2016-Jun-27 15:33N 52°28' E 004°35'0 0.0
2016-Jun-27 14:33N 52°28' E 004°35'0 0.0
2016-Jun-27 13:33N 52°28' E 004°35'0 0.0
2016-Jun-27 12:33N 52°28' E 004°35'0 0.0
2016-Jun-27 11:33N 52°28' E 004°35'0 0.0
2016-Jun-27 10:33N 52°28' E 004°35'0 0.0
2016-Jun-27 09:33N 52°28' E 004°35'0 0.0
2016-Jun-27 08:33N 52°28' E 004°35'0 0.0
2016-Jun-27 07:33N 52°28' E 004°35'0 0.0
2016-Jun-27 06:33N 52°28' E 004°35'0 0.0
2016-Jun-27 05:33N 52°28' E 004°35'0 0.0
2016-Jun-27 04:33N 52°28' E 004°35'0 0.0
2016-Jun-27 03:33N 52°28' E 004°35'0 0.0
2016-Jun-27 02:33N 52°28' E 004°35'0 0.0
2016-Jun-27 01:33N 52°28' E 004°35'0 0.0
2016-Jun-27 00:33N 52°28' E 004°35'0 0.0
2016-Jun-26 23:33N 52°28' E 004°35'0 0.0
2016-Jun-26 22:33N 52°28' E 004°35'0 0.0
2016-Jun-26 21:33N 52°28' E 004°35'0 0.0
2016-Jun-26 20:33N 52°28' E 004°35'0 0.0
2016-Jun-26 19:33N 52°28' E 004°35'0 0.0
2016-Jun-26 18:33N 52°28' E 004°35'0 0.0
2016-Jun-26 17:33N 52°28' E 004°35'0 0.0
2016-Jun-26 16:33N 52°28' E 004°35'0 0.0
2016-Jun-26 15:33N 52°28' E 004°35'0 0.0
2016-Jun-26 14:33N 52°28' E 004°35'0 0.0
2016-Jun-26 13:33N 52°28' E 004°35'0 0.0
2016-Jun-26 12:33N 52°28' E 004°35'0 0.0
2016-Jun-26 11:33N 52°28' E 004°35'0 0.0
2016-Jun-26 10:33N 52°28' E 004°35'0 0.0
2016-Jun-26 09:33N 52°28' E 004°35'0 0.0
2016-Jun-26 08:33N 52°28' E 004°35'0 0.0
2016-Jun-26 07:33N 52°28' E 004°35'0 0.0
2016-Jun-26 06:33N 52°28' E 004°35'0 0.0
2016-Jun-26 05:33N 52°28' E 004°35'0 0.0
2016-Jun-26 04:33N 52°28' E 004°35'0 0.0
2016-Jun-26 03:33N 52°28' E 004°35'0 0.0
2016-Jun-26 02:33N 52°28' E 004°35'0 0.0
2016-Jun-26 01:33N 52°28' E 004°35'0 0.0
2016-Jun-26 00:33N 52°28' E 004°35'0 0.0
2016-Jun-25 23:33N 52°28' E 004°35'0 0.0
2016-Jun-25 22:33N 52°28' E 004°35'0 0.0
2016-Jun-25 21:33N 52°28' E 004°35'0 0.0
2016-Jun-25 20:33N 52°28' E 004°35'0 0.0
2016-Jun-25 19:33N 52°28' E 004°35'0 0.0
2016-Jun-25 18:33N 52°28' E 004°35'0 0.0
2016-Jun-25 17:33N 52°28' E 004°35'0 0.0
2016-Jun-25 16:33N 52°28' E 004°35'0 0.0
2016-Jun-25 15:33N 52°28' E 004°35'0 0.0
2016-Jun-25 14:32N 52°28' E 004°35'0 0.0
2016-Jun-25 13:33N 52°28' E 004°35'0 0.0
2016-Jun-25 12:33N 52°28' E 004°35'0 0.0
2016-Jun-25 11:33N 52°28' E 004°35'0 0.0
2016-Jun-25 10:33N 52°28' E 004°35'0 0.0
2016-Jun-25 09:33N 52°28' E 004°35'0 0.0
2016-Jun-25 08:33N 52°28' E 004°35'0 0.0
2016-Jun-25 07:33N 52°28' E 004°35'0 0.0
2016-Jun-25 06:33N 52°28' E 004°35'0 0.0
2016-Jun-25 05:33N 52°28' E 004°35'0 0.0
2016-Jun-25 04:33N 52°28' E 004°35'0 0.0
2016-Jun-25 03:33N 52°28' E 004°35'0 0.0
2016-Jun-25 02:33N 52°28' E 004°35'0 0.0
2016-Jun-25 01:33N 52°28' E 004°35'0 0.0
2016-Jun-25 00:33N 52°28' E 004°35'0 0.0
2016-Jun-24 23:33N 52°28' E 004°35'0 0.0
2016-Jun-24 22:33N 52°28' E 004°35'0 0.0
2016-Jun-24 21:33N 52°28' E 004°35'0 0.0
2016-Jun-24 20:33N 52°28' E 004°35'0 0.0
2016-Jun-24 19:33N 52°28' E 004°35'0 0.0
2016-Jun-24 18:33N 52°28' E 004°35'0 0.0
2016-Jun-24 17:33N 52°28' E 004°35'0 0.0
2016-Jun-24 16:33N 52°28' E 004°35'0 0.0
2016-Jun-24 15:33N 52°28' E 004°35'0 0.0
2016-Jun-24 14:33N 52°28' E 004°35'0 0.0
2016-Jun-24 13:33N 52°28' E 004°35'0 0.0
2016-Jun-24 12:33N 52°28' E 004°35'0 0.0
2016-Jun-24 11:33N 52°28' E 004°35'0 0.0
2016-Jun-24 10:33N 52°28' E 004°35'0 0.0
2016-Jun-24 09:33N 52°28' E 004°35'0 0.0
2016-Jun-24 08:33N 52°28' E 004°35'0 0.0
2016-Jun-24 07:33N 52°28' E 004°35'0 0.0
2016-Jun-24 04:33N 52°28' E 004°35'0 0.0
2016-Jun-24 03:33N 52°28' E 004°35'0 0.0
2016-Jun-24 02:33N 52°28' E 004°35'0 0.0
2016-Jun-24 01:33N 52°28' E 004°35'0 0.0
2016-Jun-24 00:33N 52°28' E 004°35'0 0.0
2016-Jun-23 23:33N 52°28' E 004°35'0 0.0
2016-Jun-23 22:33N 52°28' E 004°35'0 0.0
2016-Jun-23 21:33N 52°28' E 004°35'0 0.0
2016-Jun-23 20:33N 52°28' E 004°35'0 0.0
2016-Jun-23 19:33N 52°28' E 004°35'0 0.0
2016-Jun-23 18:33N 52°28' E 004°35'0 0.0
2016-Jun-23 17:33N 52°28' E 004°35'0 0.0
2016-Jun-23 16:33N 52°28' E 004°35'0 0.0
2016-Jun-23 15:33N 52°28' E 004°35'0 0.0
2016-Jun-23 14:33N 52°28' E 004°35'0 0.0
2016-Jun-23 13:33N 52°28' E 004°35'0 0.0
2016-Jun-23 12:33N 52°28' E 004°35'0 0.0
2016-Jun-23 11:33N 52°28' E 004°35'0 0.0
2016-Jun-23 10:33N 52°28' E 004°35'0 0.0
2016-Jun-23 09:33N 52°28' E 004°35'0 0.0
2016-Jun-23 08:33N 52°28' E 004°35'0 0.0
2016-Jun-23 07:33N 52°28' E 004°35'0 0.0
2016-Jun-23 05:33N 52°28' E 004°35'0 0.0
2016-Jun-23 04:33N 52°28' E 004°35'0 0.0
2016-Jun-23 03:33N 52°28' E 004°35'0 0.0
2016-Jun-23 02:33N 52°28' E 004°35'0 0.0
2016-Jun-23 01:33N 52°28' E 004°35'0 0.0
2016-Jun-23 00:33N 52°28' E 004°35'0 0.0
2016-Jun-22 23:33N 52°28' E 004°35'0 0.0
2016-Jun-22 22:33N 52°28' E 004°35'0 0.0
2016-Jun-22 21:33N 52°28' E 004°35'0 0.0
2016-Jun-22 20:33N 52°28' E 004°35'0 0.0
2016-Jun-22 19:33N 52°28' E 004°35'0 0.0
2016-Jun-22 18:33N 52°28' E 004°35'0 0.0
2016-Jun-22 17:33N 52°28' E 004°35'0 0.0
2016-Jun-22 16:33N 52°28' E 004°35'0 0.0
2016-Jun-22 15:33N 52°28' E 004°35'0 0.0
2016-Jun-22 14:33N 52°28' E 004°35'0 0.0
2016-Jun-22 13:33N 52°28' E 004°35'0 0.0
2016-Jun-22 12:33N 52°28' E 004°35'0 0.0
2016-Jun-22 11:33N 52°28' E 004°35'0 0.0
2016-Jun-22 10:33N 52°28' E 004°35'0 0.0
2016-Jun-22 09:33N 52°28' E 004°35'0 0.0
2016-Jun-22 08:33N 52°28' E 004°35'0 0.0
2016-Jun-22 07:33N 52°28' E 004°35'0 0.0
2016-Jun-22 06:33N 52°28' E 004°35'0 0.0
2016-Jun-22 05:33N 52°28' E 004°35'0 0.0
2016-Jun-22 04:33N 52°28' E 004°35'0 0.2
2016-Jun-22 03:33N 52°28' E 004°35'4 4.2
2016-Jun-22 02:33N 52°27' E 004°28'3 3.5
2016-Jun-22 01:33N 52°24' E 004°26'3 3.1
2016-Jun-22 00:33N 52°21' E 004°24'1 0.7
2016-Jun-21 23:33N 52°20' E 004°24'0 0.0
2016-Jun-21 22:33N 52°20' E 004°24'0 0.0
2016-Jun-21 21:33N 52°20' E 004°24'0 0.5
2016-Jun-21 20:33N 52°21' E 004°24'7 7.2
2016-Jun-21 19:32N 52°27' E 004°28'4 4.1
2016-Jun-21 18:33N 52°28' E 004°35'0 0.0
2016-Jun-21 17:33N 52°28' E 004°35'0 0.0
2016-Jun-21 16:33N 52°28' E 004°35'0 0.0
2016-Jun-21 15:33N 52°28' E 004°35'0 0.0
2016-Jun-21 14:33N 52°28' E 004°35'0 0.0
2016-Jun-21 13:33N 52°28' E 004°35'0 0.0
2016-Jun-21 12:33N 52°28' E 004°35'0 0.0
2016-Jun-21 11:33N 52°28' E 004°35'0 0.0
2016-Jun-21 10:33N 52°28' E 004°35'0 0.0
2016-Jun-21 09:33N 52°28' E 004°35'0 0.0
2016-Jun-21 08:33N 52°28' E 004°35'0 0.0
2016-Jun-21 07:33N 52°28' E 004°35'0 0.0
2016-Jun-21 05:33N 52°28' E 004°35'0 0.0
2016-Jun-21 04:33N 52°28' E 004°35'0 0.0
2016-Jun-21 03:33N 52°28' E 004°35'0 0.0
2016-Jun-21 02:33N 52°28' E 004°35'0 0.0
2016-Jun-21 01:33N 52°28' E 004°35'0 0.0
2016-Jun-21 00:33N 52°28' E 004°35'0 0.0
2016-Jun-20 23:33N 52°28' E 004°35'0 0.0
2016-Jun-20 22:33N 52°28' E 004°35'0 0.0
2016-Jun-20 21:33N 52°28' E 004°35'0 0.0
2016-Jun-20 20:33N 52°28' E 004°35'0 0.0
2016-Jun-20 19:33N 52°28' E 004°35'0 0.0
2016-Jun-20 18:33N 52°28' E 004°35'0 0.0
2016-Jun-20 17:33N 52°28' E 004°35'0 0.0
2016-Jun-20 16:33N 52°28' E 004°35'0 0.0
2016-Jun-20 15:33N 52°28' E 004°35'0 0.0
2016-Jun-20 14:34N 52°28' E 004°35'0 0.0
2016-Jun-20 13:33N 52°28' E 004°35'0 0.0
2016-Jun-20 12:33N 52°28' E 004°35'0 0.0
2016-Jun-20 11:34N 52°28' E 004°35'0 0.0
2016-Jun-20 10:33N 52°28' E 004°35'0 0.0
2016-Jun-20 09:33N 52°28' E 004°35'0 0.0
2016-Jun-20 08:34N 52°28' E 004°35'0 0.0
2016-Jun-20 07:33N 52°28' E 004°35'0 0.0
2016-Jun-20 06:33N 52°28' E 004°35'0 0.0
2016-Jun-20 05:33N 52°28' E 004°35'0 0.0
2016-Jun-20 04:33N 52°28' E 004°35'0 0.0
2016-Jun-20 03:33N 52°28' E 004°35'0 0.0
2016-Jun-20 02:33N 52°28' E 004°35'0 0.0
2016-Jun-20 01:34N 52°28' E 004°35'0 0.0
2016-Jun-20 00:33N 52°28' E 004°35'0 0.0
2016-Jun-19 23:33N 52°28' E 004°35'  
Track history (hours):
 
Tides and Currents Weather Stations Pressure Air Temp Water Temp Dewpoint Dewpoint Depression Visibility Wind Speed Wind Dir Waves Ship Positions

Velserdiep

Last reported at 2016-Jun-29 23:33 UTC. Time now 2016-Jun-29 23:47 UTC.
Position N 52°28' E 004°35'.

Length 120 m; draft 5 m.

Type: Cargo ship. MMSI: 244484000.

Date/timePositionNaut miles runAvg speedWind from/ knotsBaromVisibWave heightAir tempDewpointWater temp
2016-Jun-29 23:33N 52°28' E 004°35'0 0.0
2016-Jun-29 22:33N 52°28' E 004°35'0 0.0
2016-Jun-29 21:33N 52°28' E 004°35'0 0.0
2016-Jun-29 20:33N 52°28' E 004°35'0 0.0
2016-Jun-29 19:32N 52°28' E 004°35'0 0.0
2016-Jun-29 18:33N 52°28' E 004°35'0 0.0
2016-Jun-29 17:33N 52°28' E 004°35'0 0.0
2016-Jun-29 16:33N 52°28' E 004°35'0 0.0
2016-Jun-29 15:33N 52°28' E 004°35'0 0.0
2016-Jun-29 14:33N 52°28' E 004°35'0 0.0
2016-Jun-29 13:33N 52°28' E 004°35'0 0.0
2016-Jun-29 12:33N 52°28' E 004°35'0 0.0
2016-Jun-29 11:33N 52°28' E 004°35'0 0.0
2016-Jun-29 10:33N 52°28' E 004°35'0 0.0
2016-Jun-29 09:33N 52°28' E 004°35'0 0.0
2016-Jun-29 08:33N 52°28' E 004°35'0 0.0
2016-Jun-29 07:33N 52°28' E 004°35'0 0.0
2016-Jun-29 06:33N 52°28' E 004°35'0 0.0
2016-Jun-29 05:33N 52°28' E 004°35'0 0.0
2016-Jun-29 04:33N 52°28' E 004°35'0 0.0
2016-Jun-29 03:33N 52°28' E 004°35'0 0.0
2016-Jun-29 02:33N 52°28' E 004°35'0 0.0
2016-Jun-29 01:33N 52°28' E 004°35'0 0.0
2016-Jun-29 00:33N 52°28' E 004°35'0 0.0
2016-Jun-28 23:33N 52°28' E 004°35'0 0.0
2016-Jun-28 22:33N 52°28' E 004°35'0 0.0
2016-Jun-28 21:33N 52°28' E 004°35'0 0.0
2016-Jun-28 20:33N 52°28' E 004°35'0 0.0
2016-Jun-28 19:33N 52°28' E 004°35'0 0.0
2016-Jun-28 18:33N 52°28' E 004°35'0 0.0
2016-Jun-28 17:33N 52°28' E 004°35'0 0.0
2016-Jun-28 16:33N 52°28' E 004°35'0 0.0
2016-Jun-28 15:33N 52°28' E 004°35'0 0.0
2016-Jun-28 14:33N 52°28' E 004°35'0 0.0
2016-Jun-28 13:33N 52°28' E 004°35'0 0.0
2016-Jun-28 12:33N 52°28' E 004°35'0 0.0
2016-Jun-28 11:33N 52°28' E 004°35'0 0.0
2016-Jun-28 10:33N 52°28' E 004°35'0 0.0
2016-Jun-28 09:33N 52°28' E 004°35'0 0.0
2016-Jun-28 08:33N 52°28' E 004°35'0 0.0
2016-Jun-28 07:33N 52°28' E 004°35'6 2.1
2016-Jun-28 04:33N 52°22' E 004°29'2 1.7
2016-Jun-28 03:34N 52°21' E 004°29'3 3.2
2016-Jun-28 02:33N 52°24' E 004°31'3 2.9
2016-Jun-28 01:33N 52°26' E 004°33'0 0.2
2016-Jun-28 00:33N 52°26' E 004°32'2 2.0
2016-Jun-27 23:33N 52°25' E 004°31'2 2.5
2016-Jun-27 22:33N 52°27' E 004°32'2 1.6
2016-Jun-27 21:33N 52°28' E 004°35'0 0.0
2016-Jun-27 20:33N 52°28' E 004°35'0 0.0
2016-Jun-27 19:33N 52°28' E 004°35'0 0.0
2016-Jun-27 18:33N 52°28' E 004°35'1 0.5
2016-Jun-27 17:33N 52°28' E 004°36'0 0.5
2016-Jun-27 16:33N 52°28' E 004°35'0 0.0
2016-Jun-27 15:33N 52°28' E 004°35'0 0.0
2016-Jun-27 14:33N 52°28' E 004°35'0 0.0
2016-Jun-27 13:33N 52°28' E 004°35'0 0.0
2016-Jun-27 12:33N 52°28' E 004°35'0 0.0
2016-Jun-27 11:33N 52°28' E 004°35'0 0.0
2016-Jun-27 10:33N 52°28' E 004°35'0 0.0
2016-Jun-27 09:33N 52°28' E 004°35'0 0.0
2016-Jun-27 08:33N 52°28' E 004°35'0 0.0
2016-Jun-27 07:33N 52°28' E 004°35'0 0.0
2016-Jun-27 06:33N 52°28' E 004°35'0 0.0
2016-Jun-27 05:33N 52°28' E 004°35'0 0.0
2016-Jun-27 04:33N 52°28' E 004°35'0 0.0
2016-Jun-27 03:33N 52°28' E 004°35'0 0.0
2016-Jun-27 02:33N 52°28' E 004°35'0 0.0
2016-Jun-27 01:33N 52°28' E 004°35'0 0.0
2016-Jun-27 00:33N 52°28' E 004°35'0 0.0
2016-Jun-26 23:33N 52°28' E 004°35'0 0.0
2016-Jun-26 22:33N 52°28' E 004°35'0 0.0
2016-Jun-26 21:33N 52°28' E 004°35'0 0.0
2016-Jun-26 20:33N 52°28' E 004°35'0 0.0
2016-Jun-26 19:33N 52°28' E 004°35'0 0.0
2016-Jun-26 18:33N 52°28' E 004°35'0 0.0
2016-Jun-26 17:33N 52°28' E 004°35'0 0.0
2016-Jun-26 16:33N 52°28' E 004°35'0 0.0
2016-Jun-26 15:33N 52°28' E 004°35'0 0.0
2016-Jun-26 14:33N 52°28' E 004°35'0 0.0
2016-Jun-26 13:33N 52°28' E 004°35'0 0.0
2016-Jun-26 12:33N 52°28' E 004°35'0 0.0
2016-Jun-26 11:33N 52°28' E 004°35'0 0.0
2016-Jun-26 10:33N 52°28' E 004°35'0 0.0
2016-Jun-26 09:33N 52°28' E 004°35'0 0.0
2016-Jun-26 08:33N 52°28' E 004°35'0 0.0
2016-Jun-26 07:33N 52°28' E 004°35'0 0.0
2016-Jun-26 06:33N 52°28' E 004°35'0 0.0
2016-Jun-26 05:33N 52°28' E 004°35'0 0.0
2016-Jun-26 04:33N 52°28' E 004°35'0 0.0
2016-Jun-26 03:33N 52°28' E 004°35'0 0.0
2016-Jun-26 02:33N 52°28' E 004°35'0 0.0
2016-Jun-26 01:33N 52°28' E 004°35'0 0.0
2016-Jun-26 00:33N 52°28' E 004°35'0 0.0
2016-Jun-25 23:33N 52°28' E 004°35'0 0.0
2016-Jun-25 22:33N 52°28' E 004°35'0 0.0
2016-Jun-25 21:33N 52°28' E 004°35'0 0.0
2016-Jun-25 20:33N 52°28' E 004°35'0 0.0
2016-Jun-25 19:33N 52°28' E 004°35'0 0.0
2016-Jun-25 18:33N 52°28' E 004°35'0 0.0
2016-Jun-25 17:33N 52°28' E 004°35'0 0.0
2016-Jun-25 16:33N 52°28' E 004°35'0 0.0
2016-Jun-25 15:33N 52°28' E 004°35'0 0.0
2016-Jun-25 14:32N 52°28' E 004°35'0 0.0
2016-Jun-25 13:33N 52°28' E 004°35'0 0.0
2016-Jun-25 12:33N 52°28' E 004°35'0 0.0
2016-Jun-25 11:33N 52°28' E 004°35'0 0.0
2016-Jun-25 10:33N 52°28' E 004°35'0 0.0
2016-Jun-25 09:33N 52°28' E 004°35'0 0.0
2016-Jun-25 08:33N 52°28' E 004°35'0 0.0
2016-Jun-25 07:33N 52°28' E 004°35'0 0.0
2016-Jun-25 06:33N 52°28' E 004°35'0 0.0
2016-Jun-25 05:33N 52°28' E 004°35'0 0.0
2016-Jun-25 04:33N 52°28' E 004°35'0 0.0
2016-Jun-25 03:33N 52°28' E 004°35'0 0.0
2016-Jun-25 02:33N 52°28' E 004°35'0 0.0
2016-Jun-25 01:33N 52°28' E 004°35'0 0.0
2016-Jun-25 00:33N 52°28' E 004°35'0 0.0
2016-Jun-24 23:33N 52°28' E 004°35'0 0.0
2016-Jun-24 22:33N 52°28' E 004°35'0 0.0
2016-Jun-24 21:33N 52°28' E 004°35'0 0.0
2016-Jun-24 20:33N 52°28' E 004°35'0 0.0
2016-Jun-24 19:33N 52°28' E 004°35'0 0.0
2016-Jun-24 18:33N 52°28' E 004°35'0 0.0
2016-Jun-24 17:33N 52°28' E 004°35'0 0.0
2016-Jun-24 16:33N 52°28' E 004°35'0 0.0
2016-Jun-24 15:33N 52°28' E 004°35'0 0.0
2016-Jun-24 14:33N 52°28' E 004°35'0 0.0
2016-Jun-24 13:33N 52°28' E 004°35'0 0.0
2016-Jun-24 12:33N 52°28' E 004°35'0 0.0
2016-Jun-24 11:33N 52°28' E 004°35'0 0.0
2016-Jun-24 10:33N 52°28' E 004°35'0 0.0
2016-Jun-24 09:33N 52°28' E 004°35'0 0.0
2016-Jun-24 08:33N 52°28' E 004°35'0 0.0
2016-Jun-24 07:33N 52°28' E 004°35'0 0.0
2016-Jun-24 04:33N 52°28' E 004°35'0 0.0
2016-Jun-24 03:33N 52°28' E 004°35'0 0.0
2016-Jun-24 02:33N 52°28' E 004°35'0 0.0
2016-Jun-24 01:33N 52°28' E 004°35'0 0.0
2016-Jun-24 00:33N 52°28' E 004°35'0 0.0
2016-Jun-23 23:33N 52°28' E 004°35'0 0.0
2016-Jun-23 22:33N 52°28' E 004°35'0 0.0
2016-Jun-23 21:33N 52°28' E 004°35'0 0.0
2016-Jun-23 20:33N 52°28' E 004°35'0 0.0
2016-Jun-23 19:33N 52°28' E 004°35'0 0.0
2016-Jun-23 18:33N 52°28' E 004°35'0 0.0
2016-Jun-23 17:33N 52°28' E 004°35'0 0.0
2016-Jun-23 16:33N 52°28' E 004°35'0 0.0
2016-Jun-23 15:33N 52°28' E 004°35'0 0.0
2016-Jun-23 14:33N 52°28' E 004°35'0 0.0
2016-Jun-23 13:33N 52°28' E 004°35'0 0.0
2016-Jun-23 12:33N 52°28' E 004°35'0 0.0
2016-Jun-23 11:33N 52°28' E 004°35'0 0.0
2016-Jun-23 10:33N 52°28' E 004°35'0 0.0
2016-Jun-23 09:33N 52°28' E 004°35'0 0.0
2016-Jun-23 08:33N 52°28' E 004°35'0 0.0
2016-Jun-23 07:33N 52°28' E 004°35'0 0.0
2016-Jun-23 05:33N 52°28' E 004°35'0 0.0
2016-Jun-23 04:33N 52°28' E 004°35'0 0.0
2016-Jun-23 03:33N 52°28' E 004°35'0 0.0
2016-Jun-23 02:33N 52°28' E 004°35'0 0.0
2016-Jun-23 01:33N 52°28' E 004°35'0 0.0
2016-Jun-23 00:33N 52°28' E 004°35'0 0.0
2016-Jun-22 23:33N 52°28' E 004°35'0 0.0
2016-Jun-22 22:33N 52°28' E 004°35'0 0.0
2016-Jun-22 21:33N 52°28' E 004°35'0 0.0
2016-Jun-22 20:33N 52°28' E 004°35'0 0.0
2016-Jun-22 19:33N 52°28' E 004°35'0 0.0
2016-Jun-22 18:33N 52°28' E 004°35'0 0.0
2016-Jun-22 17:33N 52°28' E 004°35'0 0.0
2016-Jun-22 16:33N 52°28' E 004°35'0 0.0
2016-Jun-22 15:33N 52°28' E 004°35'0 0.0
2016-Jun-22 14:33N 52°28' E 004°35'0 0.0
2016-Jun-22 13:33N 52°28' E 004°35'0 0.0
2016-Jun-22 12:33N 52°28' E 004°35'0 0.0
2016-Jun-22 11:33N 52°28' E 004°35'0 0.0
2016-Jun-22 10:33N 52°28' E 004°35'0 0.0
2016-Jun-22 09:33N 52°28' E 004°35'0 0.0
2016-Jun-22 08:33N 52°28' E 004°35'0 0.0
2016-Jun-22 07:33N 52°28' E 004°35'0 0.0
2016-Jun-22 06:33N 52°28' E 004°35'0 0.0
2016-Jun-22 05:33N 52°28' E 004°35'0 0.0
2016-Jun-22 04:33N 52°28' E 004°35'0 0.2
2016-Jun-22 03:33N 52°28' E 004°35'4 4.2
2016-Jun-22 02:33N 52°27' E 004°28'3 3.5
2016-Jun-22 01:33N 52°24' E 004°26'3 3.1
2016-Jun-22 00:33N 52°21' E 004°24'1 0.7
2016-Jun-21 23:33N 52°20' E 004°24'0 0.0
2016-Jun-21 22:33N 52°20' E 004°24'0 0.0
2016-Jun-21 21:33N 52°20' E 004°24'0 0.5
2016-Jun-21 20:33N 52°21' E 004°24'7 7.2
2016-Jun-21 19:32N 52°27' E 004°28'4 4.1
2016-Jun-21 18:33N 52°28' E 004°35'0 0.0
2016-Jun-21 17:33N 52°28' E 004°35'0 0.0
2016-Jun-21 16:33N 52°28' E 004°35'0 0.0
2016-Jun-21 15:33N 52°28' E 004°35'0 0.0
2016-Jun-21 14:33N 52°28' E 004°35'0 0.0
2016-Jun-21 13:33N 52°28' E 004°35'0 0.0
2016-Jun-21 12:33N 52°28' E 004°35'0 0.0
2016-Jun-21 11:33N 52°28' E 004°35'0 0.0
2016-Jun-21 10:33N 52°28' E 004°35'0 0.0
2016-Jun-21 09:33N 52°28' E 004°35'0 0.0
2016-Jun-21 08:33N 52°28' E 004°35'0 0.0
2016-Jun-21 07:33N 52°28' E 004°35'0 0.0
2016-Jun-21 05:33N 52°28' E 004°35'0 0.0
2016-Jun-21 04:33N 52°28' E 004°35'0 0.0
2016-Jun-21 03:33N 52°28' E 004°35'0 0.0
2016-Jun-21 02:33N 52°28' E 004°35'0 0.0
2016-Jun-21 01:33N 52°28' E 004°35'0 0.0
2016-Jun-21 00:33N 52°28' E 004°35'0 0.0
2016-Jun-20 23:33N 52°28' E 004°35'0 0.0
2016-Jun-20 22:33N 52°28' E 004°35'0 0.0
2016-Jun-20 21:33N 52°28' E 004°35'0 0.0
2016-Jun-20 20:33N 52°28' E 004°35'0 0.0
2016-Jun-20 19:33N 52°28' E 004°35'0 0.0
2016-Jun-20 18:33N 52°28' E 004°35'0 0.0
2016-Jun-20 17:33N 52°28' E 004°35'0 0.0
2016-Jun-20 16:33N 52°28' E 004°35'0 0.0
2016-Jun-20 15:33N 52°28' E 004°35'0 0.0
2016-Jun-20 14:34N 52°28' E 004°35'0 0.0
2016-Jun-20 13:33N 52°28' E 004°35'0 0.0
2016-Jun-20 12:33N 52°28' E 004°35'0 0.0
2016-Jun-20 11:34N 52°28' E 004°35'0 0.0
2016-Jun-20 10:33N 52°28' E 004°35'0 0.0
2016-Jun-20 09:33N 52°28' E 004°35'0 0.0
2016-Jun-20 08:34N 52°28' E 004°35'0 0.0
2016-Jun-20 07:33N 52°28' E 004°35'0 0.0
2016-Jun-20 06:33N 52°28' E 004°35'0 0.0
2016-Jun-20 05:33N 52°28' E 004°35'0 0.0
2016-Jun-20 04:33N 52°28' E 004°35'0 0.0
2016-Jun-20 03:33N 52°28' E 004°35'0 0.0
2016-Jun-20 02:33N 52°28' E 004°35'0 0.0
2016-Jun-20 01:34N 52°28' E 004°35'0 0.0
2016-Jun-20 00:33N 52°28' E 004°35'0 0.0
2016-Jun-19 23:33N 52°28' E 004°35'  

Dump ship's entire track history